createdAt,value
2019-05-05T00:01:21.238Z,79.54
2019-05-05T00:03:47.295Z,79.91
2019-05-05T00:06:14.695Z,79.81
2019-05-05T00:08:40.877Z,79.76
2019-05-05T00:11:07.206Z,79.63
2019-05-05T00:13:34.660Z,79.39
2019-05-05T00:16:00.787Z,79.24
2019-05-05T00:18:27.138Z,79.40
2019-05-05T00:20:55.175Z,79.58
2019-05-05T00:23:21.415Z,79.56
2019-05-05T00:25:47.439Z,79.12
2019-05-05T00:28:14.331Z,78.77
2019-05-05T00:30:40.625Z,78.42
2019-05-05T00:33:06.619Z,78.58
2019-05-05T00:35:34.470Z,78.12
2019-05-05T00:38:00.677Z,78.29
2019-05-05T00:40:26.746Z,78.52
2019-05-05T00:42:54.606Z,79.08
2019-05-05T00:45:20.942Z,79.26
2019-05-05T00:47:46.964Z,79.49
2019-05-05T00:50:14.588Z,79.88
2019-05-05T00:52:40.623Z,79.99
2019-05-05T00:55:07.412Z,80.08
2019-05-05T00:57:34.779Z,80.40
2019-05-05T01:00:01.173Z,80.00
2019-05-05T01:02:27.304Z,80.05
2019-05-05T01:04:55.075Z,80.15
2019-05-05T01:07:21.379Z,80.12
2019-05-05T01:09:47.723Z,79.89
2019-05-05T01:12:14.977Z,80.04
2019-05-05T01:14:41.216Z,80.27
2019-05-05T01:17:07.324Z,80.34
2019-05-05T01:19:34.988Z,80.63
2019-05-05T01:22:01.421Z,80.72
2019-05-05T01:24:28.567Z,80.67
2019-05-05T01:26:55.169Z,80.53
2019-05-05T01:29:21.437Z,80.60
2019-05-05T01:31:47.463Z,80.49
2019-05-05T01:34:15.084Z,80.31
2019-05-05T01:36:42.569Z,80.22
2019-05-05T01:39:09.927Z,80.39
2019-05-05T01:41:36.048Z,80.16
2019-05-05T01:44:02.379Z,80.15
2019-05-05T01:46:28.401Z,79.98
2019-05-05T01:48:54.983Z,80.16
2019-05-05T01:51:21.163Z,80.15
2019-05-05T01:53:47.290Z,80.12
2019-05-05T01:56:15.363Z,80.48
2019-05-05T01:58:41.790Z,80.44
2019-05-05T02:01:07.817Z,80.71
2019-05-05T02:03:34.973Z,80.62
2019-05-05T02:06:01.498Z,80.43
2019-05-05T02:08:27.727Z,80.19
2019-05-05T02:10:54.807Z,80.26
2019-05-05T02:13:21.340Z,80.31
2019-05-05T02:15:47.332Z,80.11
2019-05-05T02:18:14.932Z,80.05
2019-05-05T02:20:45.052Z,80.12
2019-05-05T02:23:11.435Z,79.81
2019-05-05T02:25:37.665Z,79.93
2019-05-05T02:28:04.491Z,80.38
2019-05-05T02:30:30.840Z,80.43
2019-05-05T02:32:56.965Z,80.59
2019-05-05T02:35:25.533Z,80.42
2019-05-05T02:37:51.063Z,80.35
2019-05-05T02:40:18.104Z,80.44
2019-05-05T02:42:45.863Z,80.46
2019-05-05T02:45:25.054Z,80.39
2019-05-05T02:47:54.727Z,80.90
2019-05-05T02:50:21.241Z,80.67
2019-05-05T02:52:48.079Z,80.46
2019-05-05T02:55:15.328Z,80.74
2019-05-05T02:57:43.823Z,80.49
2019-05-05T03:00:10.243Z,80.38
2019-05-05T03:02:36.691Z,80.17
2019-05-05T03:05:04.314Z,80.20
2019-05-05T03:07:34.346Z,80.13
2019-05-05T03:10:00.793Z,79.77
2019-05-05T03:12:29.562Z,79.60
2019-05-05T03:14:57.230Z,79.45
2019-05-05T03:17:23.691Z,79.80
2019-05-05T03:19:50.814Z,79.98
2019-05-05T03:22:17.857Z,79.87
2019-05-05T03:24:45.008Z,79.85
2019-05-05T03:27:11.141Z,79.92
2019-05-05T03:29:38.691Z,80.12
2019-05-05T03:32:05.875Z,80.07
2019-05-05T03:34:34.323Z,79.96
2019-05-05T03:37:00.738Z,79.73
2019-05-05T03:39:27.185Z,79.83
2019-05-05T03:41:54.290Z,79.53
2019-05-05T03:44:20.765Z,79.33
2019-05-05T03:46:47.456Z,80.84
2019-05-05T03:49:14.249Z,81.30
2019-05-05T03:51:40.575Z,81.83
2019-05-05T03:54:06.801Z,81.82
2019-05-05T03:56:34.741Z,81.55
2019-05-05T03:59:01.346Z,81.68
2019-05-05T04:01:35.207Z,82.00
2019-05-05T04:04:03.341Z,82.16
2019-05-05T04:06:29.168Z,82.40
2019-05-05T04:08:55.428Z,82.88
2019-05-05T04:11:23.590Z,83.04
2019-05-05T04:13:49.724Z,82.47
2019-05-05T04:16:15.818Z,82.20
2019-05-05T04:18:43.557Z,82.09
2019-05-05T04:21:09.739Z,82.04
2019-05-05T04:23:35.862Z,81.82
2019-05-05T04:26:03.762Z,82.16
2019-05-05T04:28:29.902Z,82.99
2019-05-05T04:30:55.860Z,83.26
2019-05-05T04:33:23.653Z,83.35
2019-05-05T04:35:49.787Z,82.99
2019-05-05T04:38:15.785Z,82.52
2019-05-05T04:40:43.559Z,82.12
2019-05-05T04:43:09.674Z,82.03
2019-05-05T04:45:35.678Z,81.65
2019-05-05T04:48:04.201Z,81.13
2019-05-05T04:50:30.219Z,80.66
2019-05-05T04:52:56.330Z,80.54
2019-05-05T04:55:24.351Z,80.45
2019-05-05T04:57:50.418Z,79.80
2019-05-05T05:00:16.852Z,79.20
2019-05-05T05:02:43.620Z,78.69
2019-05-05T05:05:09.922Z,77.94
2019-05-05T05:07:35.944Z,76.46
2019-05-05T05:10:04.630Z,75.62
2019-05-05T05:12:30.648Z,74.86
2019-05-05T05:14:56.673Z,74.89
2019-05-05T05:17:24.720Z,74.97
2019-05-05T05:19:50.662Z,75.01
2019-05-05T05:22:16.684Z,74.68
2019-05-05T05:24:44.667Z,75.86
2019-05-05T05:27:10.984Z,74.67
2019-05-05T05:29:37.011Z,73.56
2019-05-05T05:32:04.222Z,73.23
2019-05-05T05:34:30.388Z,72.62
2019-05-05T05:36:56.505Z,72.27
2019-05-05T05:39:24.361Z,73.50
2019-05-05T05:41:50.494Z,73.28
2019-05-05T05:44:16.520Z,73.02
2019-05-05T05:46:43.869Z,72.86
2019-05-05T05:49:10.408Z,72.24
2019-05-05T05:51:36.634Z,71.66
2019-05-05T05:54:03.784Z,71.08
2019-05-05T05:56:29.912Z,71.26
2019-05-05T05:58:55.931Z,72.10
2019-05-05T06:01:23.928Z,70.88
2019-05-05T06:03:50.022Z,71.34
2019-05-05T06:06:16.044Z,70.60
2019-05-05T06:08:43.964Z,71.35
2019-05-05T06:11:10.036Z,69.81
2019-05-05T06:13:36.161Z,69.62
2019-05-05T06:16:04.263Z,69.87
2019-05-05T06:18:30.666Z,65.52
2019-05-05T06:20:56.789Z,60.53
2019-05-05T06:23:24.018Z,54.55
2019-05-05T06:25:51.499Z,52.77
2019-05-05T06:28:17.596Z,51.82
2019-05-05T06:30:44.272Z,50.57
2019-05-05T06:33:10.689Z,48.89
2019-05-05T06:35:37.955Z,47.81
2019-05-05T06:38:04.724Z,47.27
2019-05-05T06:40:31.123Z,46.77
2019-05-05T06:42:57.567Z,46.06
2019-05-05T06:45:23.968Z,42.95
2019-05-05T06:47:50.037Z,45.27
2019-05-05T06:50:16.226Z,43.62
2019-05-05T06:52:45.182Z,44.68
2019-05-05T06:55:10.320Z,46.69
2019-05-05T06:57:36.388Z,46.21
2019-05-05T07:00:04.412Z,47.26
2019-05-05T07:02:30.536Z,48.46
2019-05-05T07:04:56.661Z,46.85
2019-05-05T07:07:23.607Z,48.45
2019-05-05T07:09:49.787Z,48.23
2019-05-05T07:12:15.863Z,46.94
2019-05-05T07:14:41.879Z,48.80
2019-05-05T07:17:07.833Z,47.79
2019-05-05T07:19:34.471Z,47.26
2019-05-05T07:22:01.176Z,47.39
2019-05-05T07:24:27.173Z,49.50
2019-05-05T07:26:54.217Z,48.47
2019-05-05T07:29:20.526Z,48.21
2019-05-05T07:31:46.597Z,47.40
2019-05-05T07:34:13.689Z,48.59
2019-05-05T07:36:41.098Z,49.08
2019-05-05T07:39:07.327Z,45.51
2019-05-05T07:41:34.130Z,46.68
2019-05-05T07:44:00.708Z,48.67
2019-05-05T07:46:26.933Z,44.67
2019-05-05T07:48:54.475Z,44.26
2019-05-05T07:51:20.715Z,46.10
2019-05-05T07:53:46.839Z,42.86
2019-05-05T07:56:14.540Z,49.42
2019-05-05T07:58:40.834Z,44.61
2019-05-05T08:01:06.958Z,41.85
2019-05-05T08:03:33.864Z,45.41
2019-05-05T08:06:00.135Z,47.21
2019-05-05T08:08:26.151Z,45.36
2019-05-05T08:10:54.203Z,46.59
2019-05-05T08:13:20.556Z,44.03
2019-05-05T08:15:56.258Z,46.87
2019-05-05T08:18:14.848Z,45.78
2019-05-05T08:20:40.885Z,45.58
2019-05-05T08:23:08.326Z,45.17
2019-05-05T08:25:39.986Z,43.58
2019-05-05T08:28:04.343Z,44.40
2019-05-05T08:30:30.715Z,43.88
2019-05-05T08:32:56.718Z,45.28
2019-05-05T08:35:23.778Z,44.08
2019-05-05T08:37:50.093Z,40.89
2019-05-05T08:40:17.550Z,41.48
2019-05-05T08:42:44.824Z,45.97
2019-05-05T08:45:11.233Z,43.42
2019-05-05T08:47:39.692Z,41.10
2019-05-05T08:50:06.660Z,40.37
2019-05-05T08:52:34.297Z,42.20
2019-05-05T08:55:00.357Z,45.13
2019-05-05T08:57:26.468Z,46.27
2019-05-05T08:59:54.491Z,44.67
2019-05-05T09:02:20.560Z,43.83
2019-05-05T09:04:47.708Z,41.56
2019-05-05T09:07:13.916Z,40.49
2019-05-05T09:09:40.065Z,40.15
2019-05-05T09:12:06.406Z,38.83
2019-05-05T09:14:34.438Z,40.53
2019-05-05T09:17:00.588Z,42.85
2019-05-05T09:19:26.720Z,38.68
2019-05-05T09:21:54.148Z,40.38
2019-05-05T09:24:20.806Z,40.99
2019-05-05T09:26:47.238Z,42.51
2019-05-05T09:29:13.800Z,41.16
2019-05-05T09:31:39.998Z,40.58
2019-05-05T09:34:06.227Z,41.01
2019-05-05T09:36:34.758Z,40.85
2019-05-05T09:39:00.830Z,40.57
2019-05-05T09:41:26.958Z,38.74
2019-05-05T09:43:53.937Z,40.79
2019-05-05T09:46:20.127Z,42.52
2019-05-05T09:48:46.089Z,39.59
2019-05-05T09:51:13.620Z,38.69
2019-05-05T09:53:39.833Z,33.44
2019-05-05T09:56:06.177Z,39.13
2019-05-05T09:58:34.580Z,37.94
2019-05-05T10:01:00.564Z,33.51
2019-05-05T10:03:26.690Z,39.94
2019-05-05T10:05:54.079Z,37.66
2019-05-05T10:08:20.268Z,39.01
2019-05-05T10:10:46.501Z,40.32
2019-05-05T10:13:14.938Z,43.33
2019-05-05T10:15:41.102Z,43.40
2019-05-05T10:18:07.125Z,40.96
2019-05-05T10:20:34.363Z,40.28
2019-05-05T10:23:00.506Z,41.88
2019-05-05T10:25:26.525Z,39.85
2019-05-05T10:27:53.972Z,39.15
2019-05-05T10:30:20.310Z,39.68
2019-05-05T10:32:46.447Z,40.05
2019-05-05T10:35:14.327Z,41.65
2019-05-05T10:37:40.639Z,39.27
2019-05-05T10:40:06.881Z,42.04
2019-05-05T10:42:33.647Z,42.37
2019-05-05T10:44:59.930Z,43.04
2019-05-05T10:47:25.956Z,41.00
2019-05-05T10:49:54.372Z,38.25
2019-05-05T10:52:20.156Z,38.31
2019-05-05T10:54:46.267Z,39.30
2019-05-05T10:57:14.407Z,41.28
2019-05-05T10:59:43.416Z,37.85
2019-05-05T11:02:09.661Z,38.06
2019-05-05T11:04:35.810Z,39.67
2019-05-05T11:07:04.160Z,39.00
2019-05-05T11:09:30.327Z,42.31
2019-05-05T11:11:56.312Z,38.86
2019-05-05T11:14:22.437Z,39.78
2019-05-05T11:16:49.074Z,40.45
2019-05-05T11:19:15.511Z,41.74
2019-05-05T11:21:43.556Z,37.87
2019-05-05T11:24:09.804Z,41.28
2019-05-05T11:26:36.031Z,39.56
2019-05-05T11:29:04.128Z,38.24
2019-05-05T11:31:30.226Z,41.77
2019-05-05T11:33:56.251Z,39.51
2019-05-05T11:36:23.984Z,40.87
2019-05-05T11:38:50.137Z,40.17
2019-05-05T11:41:16.262Z,36.95
2019-05-05T11:43:42.386Z,41.05
2019-05-05T11:46:08.721Z,39.83
2019-05-05T11:48:34.740Z,42.15
2019-05-05T11:51:00.863Z,39.53
2019-05-05T11:53:26.890Z,40.88
2019-05-05T11:55:54.980Z,40.75
2019-05-05T11:58:22.006Z,40.75
2019-05-05T12:00:48.027Z,37.63
2019-05-05T12:03:14.530Z,40.86
2019-05-05T12:05:40.891Z,41.06
2019-05-05T12:08:07.021Z,38.87
2019-05-05T12:10:34.419Z,41.30
2019-05-05T12:13:00.904Z,39.84
2019-05-05T12:15:27.645Z,41.62
2019-05-05T12:17:54.541Z,40.21
2019-05-05T12:20:36.073Z,39.21
2019-05-05T12:23:04.705Z,40.82
2019-05-05T12:25:31.088Z,38.82
2019-05-05T12:27:57.217Z,41.11
2019-05-05T12:30:24.486Z,38.83
2019-05-05T12:32:50.590Z,39.00
2019-05-05T12:35:16.712Z,39.51
2019-05-05T12:37:44.538Z,40.45
2019-05-05T12:40:10.910Z,38.24
2019-05-05T12:42:37.240Z,34.56
2019-05-05T12:45:05.515Z,40.22
2019-05-05T12:47:34.245Z,39.81
2019-05-05T12:50:00.631Z,40.23
2019-05-05T12:52:27.988Z,38.47
2019-05-05T12:54:54.636Z,38.75
2019-05-05T12:57:20.954Z,41.37
2019-05-05T12:59:47.179Z,40.03
2019-05-05T13:02:14.264Z,41.34
2019-05-05T13:04:40.456Z,37.65
2019-05-05T13:07:08.291Z,39.58
2019-05-05T13:09:34.956Z,39.71
2019-05-05T13:12:01.493Z,39.54
2019-05-05T13:14:27.720Z,40.13
2019-05-05T13:16:56.009Z,39.69
2019-05-05T13:19:24.051Z,35.17
2019-05-05T13:21:50.314Z,36.51
2019-05-05T13:24:16.417Z,39.01
2019-05-05T13:26:43.566Z,37.14
2019-05-05T13:29:10.714Z,40.08
2019-05-05T13:31:36.942Z,37.88
2019-05-05T13:34:04.428Z,37.61
2019-05-05T13:36:30.841Z,36.79
2019-05-05T13:38:56.854Z,37.43
2019-05-05T13:41:23.081Z,36.79
2019-05-05T13:43:50.333Z,37.96
2019-05-05T13:46:16.456Z,37.94
2019-05-05T13:48:44.422Z,38.82
2019-05-05T13:51:14.637Z,37.88
2019-05-05T13:53:40.978Z,36.72
2019-05-05T13:56:11.929Z,38.38
2019-05-05T13:58:35.377Z,37.50
2019-05-05T14:01:03.760Z,36.74
2019-05-05T14:03:30.176Z,35.43
2019-05-05T14:05:57.444Z,36.49
2019-05-05T14:08:23.886Z,35.71
2019-05-05T14:10:50.201Z,36.90
2019-05-05T14:13:16.386Z,39.43
2019-05-05T14:15:44.076Z,35.81
2019-05-05T14:18:10.521Z,37.04
2019-05-05T14:20:36.751Z,35.45
2019-05-05T14:23:04.222Z,36.89
2019-05-05T14:25:30.227Z,35.72
2019-05-05T14:27:56.454Z,39.50
2019-05-05T14:30:23.649Z,38.09
2019-05-05T14:32:49.889Z,38.42
2019-05-05T14:35:22.103Z,38.75
2019-05-05T14:37:55.399Z,38.75
2019-05-05T14:40:21.516Z,37.34
2019-05-05T14:42:47.642Z,37.92
2019-05-05T14:45:15.376Z,38.04
2019-05-05T14:47:44.008Z,38.97
2019-05-05T14:50:10.532Z,37.62
2019-05-05T14:52:36.752Z,35.31
2019-05-05T14:55:04.926Z,34.69
2019-05-05T14:57:31.255Z,33.64
2019-05-05T14:59:57.381Z,33.42
2019-05-05T15:02:24.532Z,35.34
2019-05-05T15:04:50.758Z,34.36
2019-05-05T15:07:16.881Z,34.95
2019-05-05T15:09:44.132Z,34.89
2019-05-05T15:12:11.178Z,35.45
2019-05-05T15:14:37.200Z,36.39
2019-05-05T15:17:03.732Z,33.62
2019-05-05T15:19:33.971Z,35.77
2019-05-05T15:22:00.186Z,35.41
2019-05-05T15:24:26.201Z,35.07
2019-05-05T15:26:54.969Z,34.25
2019-05-05T15:29:22.160Z,35.94
2019-05-05T15:31:48.126Z,36.33
2019-05-05T15:34:14.186Z,34.85
2019-05-05T15:36:41.441Z,36.54
2019-05-05T15:39:08.138Z,35.36
2019-05-05T15:41:34.306Z,34.97
2019-05-05T15:44:03.749Z,36.42
2019-05-05T15:46:30.341Z,37.08
2019-05-05T15:48:56.369Z,35.84
2019-05-05T15:51:23.685Z,36.03
2019-05-05T15:53:50.051Z,35.24
2019-05-05T15:56:16.073Z,35.23
2019-05-05T15:58:43.506Z,36.18
2019-05-05T16:01:09.898Z,35.59
2019-05-05T16:03:36.190Z,36.18
2019-05-05T16:06:03.775Z,35.34
2019-05-05T16:08:29.970Z,39.17
2019-05-05T16:10:56.099Z,36.73
2019-05-05T16:13:22.222Z,36.19
2019-05-05T16:15:48.449Z,38.53
2019-05-05T16:18:14.678Z,36.82
2019-05-05T16:20:40.808Z,37.63
2019-05-05T16:23:06.984Z,36.91
2019-05-05T16:25:33.055Z,36.02
2019-05-05T16:27:59.386Z,37.54
2019-05-05T16:30:25.814Z,37.21
2019-05-05T16:32:54.979Z,36.47
2019-05-05T16:35:20.116Z,36.33
2019-05-05T16:37:46.386Z,37.74
2019-05-05T16:40:14.412Z,38.61
2019-05-05T16:42:41.150Z,37.12
2019-05-05T16:45:07.891Z,37.13
2019-05-05T16:47:34.627Z,38.26
2019-05-05T16:50:00.752Z,37.65
2019-05-05T16:52:26.744Z,37.27
2019-05-05T16:54:53.342Z,37.34
2019-05-05T16:57:33.191Z,38.94
2019-05-05T16:59:48.838Z,39.23
2019-05-05T17:02:15.065Z,41.28
2019-05-05T17:04:43.251Z,39.62
2019-05-05T17:07:09.371Z,39.67
2019-05-05T17:09:35.487Z,40.21
2019-05-05T17:12:03.342Z,40.89
2019-05-05T17:14:29.487Z,39.24
2019-05-05T17:16:55.706Z,39.32
2019-05-05T17:19:21.967Z,39.86
2019-05-05T17:21:48.230Z,40.91
2019-05-05T17:24:14.552Z,42.84
2019-05-05T17:26:40.826Z,42.44
2019-05-05T17:29:07.052Z,41.08
2019-05-05T17:31:33.995Z,41.46
2019-05-05T17:34:00.322Z,41.52
2019-05-05T17:36:27.573Z,42.81
2019-05-05T17:38:54.415Z,44.45
2019-05-05T17:41:20.541Z,44.75
2019-05-05T17:43:46.569Z,45.14
2019-05-05T17:46:13.490Z,45.26
2019-05-05T17:48:39.632Z,45.26
2019-05-05T17:51:05.755Z,47.96
2019-05-05T17:53:31.903Z,48.51
2019-05-05T17:55:58.010Z,49.86
2019-05-05T17:58:24.728Z,48.32
2019-05-05T18:00:54.213Z,50.49
2019-05-05T18:03:20.169Z,51.06
2019-05-05T18:05:46.366Z,52.79
2019-05-05T18:08:13.829Z,52.33
2019-05-05T18:10:39.968Z,52.22
2019-05-05T18:13:06.006Z,53.66
2019-05-05T18:15:34.001Z,54.55
2019-05-05T18:18:00.094Z,55.50
2019-05-05T18:20:27.143Z,56.57
2019-05-05T18:22:53.613Z,58.61
2019-05-05T18:25:20.028Z,59.75
2019-05-05T18:27:46.134Z,60.12
2019-05-05T18:30:13.079Z,60.25
2019-05-05T18:32:39.409Z,58.40
2019-05-05T18:35:06.758Z,57.52
2019-05-05T18:37:33.967Z,58.51
2019-05-05T18:40:00.174Z,58.17
2019-05-05T18:42:26.157Z,57.77
2019-05-05T18:44:54.022Z,56.44
2019-05-05T18:47:20.274Z,56.85
2019-05-05T18:49:46.685Z,56.26
2019-05-05T18:52:13.855Z,55.41
2019-05-05T18:54:40.569Z,55.73
2019-05-05T18:57:08.031Z,55.59
2019-05-05T18:59:34.357Z,56.54
2019-05-05T19:02:00.860Z,56.60
2019-05-05T19:04:27.225Z,55.86
2019-05-05T19:06:54.568Z,56.49
2019-05-05T19:09:20.700Z,57.07
2019-05-05T19:11:46.818Z,57.51
2019-05-05T19:14:14.315Z,57.40
2019-05-05T19:16:40.611Z,57.70
2019-05-05T19:19:06.777Z,58.09
2019-05-05T19:21:34.014Z,58.18
2019-05-05T19:24:00.932Z,58.90
2019-05-05T19:26:27.058Z,58.83
2019-05-05T19:28:54.740Z,59.56
2019-05-05T19:31:21.009Z,59.35
2019-05-05T19:33:47.174Z,59.35
2019-05-05T19:36:13.400Z,59.90
2019-05-05T19:38:39.525Z,59.87
2019-05-05T19:41:06.879Z,60.28
2019-05-05T19:43:34.017Z,60.71
2019-05-05T19:46:01.176Z,60.99
2019-05-05T19:48:27.423Z,60.85
2019-05-05T19:50:54.191Z,61.98
2019-05-05T19:53:20.678Z,62.03
2019-05-05T19:55:46.802Z,62.42
2019-05-05T19:58:14.045Z,62.29
2019-05-05T20:00:40.080Z,63.21
2019-05-05T20:03:06.341Z,62.92
2019-05-05T20:05:34.106Z,63.18
2019-05-05T20:08:00.310Z,63.45
2019-05-05T20:10:26.310Z,63.93
2019-05-05T20:12:54.014Z,64.11
2019-05-05T20:15:20.192Z,64.66
2019-05-05T20:17:46.174Z,64.68
2019-05-05T20:20:13.851Z,65.04
2019-05-05T20:22:39.927Z,65.34
2019-05-05T20:25:06.319Z,65.83
2019-05-05T20:27:34.229Z,66.58
2019-05-05T20:30:00.206Z,66.87
2019-05-05T20:32:26.763Z,67.16
2019-05-05T20:34:54.163Z,67.46
2019-05-05T20:37:23.455Z,67.62
2019-05-05T20:39:49.305Z,67.64
2019-05-05T20:42:15.394Z,67.87
2019-05-05T20:44:43.581Z,68.15
2019-05-05T20:47:09.691Z,68.22
2019-05-05T20:49:35.803Z,67.92
2019-05-05T20:52:03.728Z,67.70
2019-05-05T20:54:31.020Z,67.56
2019-05-05T20:57:00.580Z,67.38
2019-05-05T21:02:25.971Z,67.25
2019-05-05T21:04:54.091Z,67.53
2019-05-05T21:07:23.520Z,67.12
2019-05-05T21:09:49.665Z,67.64
2019-05-05T21:12:15.747Z,67.60
2019-05-05T21:14:44.458Z,68.00
2019-05-05T21:17:09.757Z,68.53
2019-05-05T21:19:35.892Z,68.51
2019-05-05T21:22:04.080Z,68.52
2019-05-05T21:24:29.992Z,68.64
2019-05-05T21:26:55.979Z,68.78
2019-05-05T21:29:23.727Z,68.91
2019-05-05T21:31:49.800Z,68.90
2019-05-05T21:34:15.793Z,68.83
2019-05-05T21:36:41.951Z,69.19
2019-05-05T21:39:08.347Z,69.21
2019-05-05T21:41:34.695Z,69.14
2019-05-05T21:44:00.939Z,69.26
2019-05-05T21:46:26.890Z,69.27
2019-05-05T21:48:54.366Z,69.49
2019-05-05T21:51:20.556Z,69.89
2019-05-05T21:53:46.558Z,70.34
2019-05-05T21:56:13.866Z,70.67
2019-05-05T21:58:39.923Z,70.33
2019-05-05T22:01:07.556Z,70.22
2019-05-05T22:03:34.866Z,70.20
2019-05-05T22:06:01.252Z,70.74
2019-05-05T22:08:27.240Z,70.56
2019-05-05T22:10:54.328Z,70.57
2019-05-05T22:13:20.561Z,70.56
2019-05-05T22:15:46.613Z,70.30
2019-05-05T22:18:14.469Z,70.25
2019-05-05T22:20:40.940Z,70.56
2019-05-05T22:23:07.025Z,70.69
2019-05-05T22:25:34.163Z,70.89
2019-05-05T22:28:00.384Z,71.18
2019-05-05T22:30:26.392Z,71.10
2019-05-05T22:32:52.389Z,71.01
2019-05-05T22:35:19.138Z,71.10
2019-05-05T22:37:45.576Z,70.84
2019-05-05T22:40:16.042Z,70.85
2019-05-05T22:42:43.719Z,71.02
2019-05-05T22:45:09.945Z,70.94
2019-05-05T22:47:35.896Z,70.85
2019-05-05T22:50:04.492Z,71.38
2019-05-05T22:52:30.727Z,71.71
2019-05-05T22:54:56.729Z,72.27
2019-05-05T22:57:24.619Z,72.90
2019-05-05T22:59:50.572Z,73.62
2019-05-05T23:02:16.969Z,74.32
2019-05-05T23:04:43.867Z,74.85
2019-05-05T23:07:09.934Z,75.54
2019-05-05T23:09:35.928Z,75.50
2019-05-05T23:12:04.070Z,75.19
2019-05-05T23:14:29.784Z,75.57
2019-05-05T23:16:58.095Z,76.11
2019-05-05T23:19:25.734Z,74.75
2019-05-05T23:21:51.842Z,73.87
2019-05-05T23:24:18.040Z,73.60
2019-05-05T23:26:43.999Z,73.18
2019-05-05T23:29:10.295Z,72.95
2019-05-05T23:31:36.276Z,73.06
2019-05-05T23:34:04.009Z,73.04
2019-05-05T23:36:30.298Z,73.33
2019-05-05T23:38:57.302Z,73.24
2019-05-05T23:41:23.919Z,73.46
2019-05-05T23:43:51.160Z,73.02
2019-05-05T23:46:17.318Z,73.72
2019-05-05T23:48:43.425Z,74.43
2019-05-05T23:51:09.376Z,73.74
2019-05-05T23:53:35.489Z,74.23
2019-05-05T23:56:01.431Z,73.67
2019-05-05T23:58:27.438Z,73.58
